createdAt,value
2018-10-18T00:04:01.351Z,18.37
2018-10-18T00:09:07.792Z,20.37
2018-10-18T00:14:11.476Z,21.17
2018-10-18T00:19:14.954Z,19.43
2018-10-18T00:24:18.542Z,16.10
2018-10-18T00:29:22.079Z,16.77
2018-10-18T00:34:25.758Z,16.60
2018-10-18T00:39:29.430Z,16.17
2018-10-18T00:44:33.071Z,13.73
2018-10-18T00:49:36.631Z,11.87
2018-10-18T00:54:40.238Z,12.00
2018-10-18T00:59:43.845Z,13.07
2018-10-18T01:04:47.442Z,10.47
2018-10-18T01:09:51.022Z,14.60
2018-10-18T01:14:54.639Z,14.10
2018-10-18T01:19:58.658Z,11.83
2018-10-18T01:25:02.182Z,9.60
2018-10-18T01:30:06.612Z,8.30
2018-10-18T01:35:10.268Z,8.00
2018-10-18T01:40:13.870Z,8.80
2018-10-18T01:45:18.531Z,9.37
2018-10-18T01:50:22.123Z,12.23
2018-10-18T01:55:25.668Z,10.87
2018-10-18T02:00:29.420Z,11.63
2018-10-18T02:05:33.035Z,11.03
2018-10-18T02:10:36.659Z,12.03
2018-10-18T02:15:40.259Z,13.47
2018-10-18T02:20:43.778Z,10.60
2018-10-18T02:25:47.319Z,11.17
2018-10-18T02:30:51.963Z,12.57
2018-10-18T02:35:55.695Z,14.07
2018-10-18T02:40:59.317Z,13.50
2018-10-18T02:46:03.958Z,16.33
2018-10-18T02:51:07.585Z,16.13
2018-10-18T02:56:11.134Z,15.97
2018-10-18T03:01:14.681Z,10.80
2018-10-18T03:06:18.457Z,14.37
2018-10-18T03:11:22.061Z,13.93
2018-10-18T03:16:25.794Z,14.10
2018-10-18T03:21:29.504Z,15.43
2018-10-18T03:26:33.176Z,19.87
2018-10-18T03:31:36.723Z,21.13
2018-10-18T03:36:40.579Z,17.30
2018-10-18T03:41:44.239Z,27.17
2018-10-18T03:46:47.871Z,43.40
2018-10-18T03:51:59.420Z,85.63
2018-10-18T03:57:02.987Z,99.27
2018-10-18T04:02:07.898Z,99.43
2018-10-18T04:07:11.525Z,92.87
2018-10-18T04:12:15.196Z,92.80
2018-10-18T04:17:18.981Z,81.53
2018-10-18T04:22:22.649Z,78.47
2018-10-18T04:27:26.310Z,82.43
2018-10-18T04:32:29.946Z,80.57
2018-10-18T04:37:33.706Z,88.77
2018-10-18T04:42:37.331Z,85.07
2018-10-18T04:47:41.175Z,86.20
2018-10-18T04:52:44.758Z,76.20
2018-10-18T04:57:48.394Z,76.30
2018-10-18T05:02:52.101Z,81.73
2018-10-18T05:07:55.873Z,86.17
2018-10-18T05:13:00.212Z,95.70
2018-10-18T05:18:03.857Z,84.33
2018-10-18T05:23:07.772Z,95.37
2018-10-18T05:28:11.387Z,95.60
2018-10-18T05:33:15.091Z,92.77
2018-10-18T05:38:18.998Z,101.67
2018-10-18T05:43:24.757Z,97.40
2018-10-18T05:48:28.367Z,99.90
2018-10-18T05:53:33.038Z,94.13
2018-10-18T05:58:36.646Z,101.27
2018-10-18T06:03:40.370Z,99.83
2018-10-18T06:08:44.032Z,111.13
2018-10-18T06:13:53.836Z,92.63
2018-10-18T06:18:57.491Z,104.50
2018-10-18T06:24:01.062Z,103.97
2018-10-18T06:29:06.412Z,104.97
2018-10-18T06:34:10.139Z,244.30
2018-10-18T06:39:13.989Z,378.37
2018-10-18T06:44:17.778Z,366.87
2018-10-18T06:49:21.444Z,200.23
2018-10-18T06:54:26.419Z,73.30
2018-10-18T06:59:30.044Z,99.03
2018-10-18T07:04:34.189Z,81.20
2018-10-18T07:09:37.992Z,77.83
2018-10-18T07:14:41.740Z,76.37
2018-10-18T07:19:45.409Z,90.53
2018-10-18T07:24:49.228Z,69.80
2018-10-18T07:29:52.823Z,69.63
2018-10-18T07:34:57.537Z,72.93
2018-10-18T07:40:01.397Z,68.70
2018-10-18T07:45:05.378Z,58.37
2018-10-18T07:50:09.172Z,56.80
2018-10-18T07:55:12.872Z,56.83
2018-10-18T08:00:16.693Z,54.90
2018-10-18T08:05:20.175Z,54.00
2018-10-18T08:10:23.774Z,48.23
2018-10-18T08:15:27.477Z,45.07
2018-10-18T08:20:31.101Z,49.33
2018-10-18T08:25:35.006Z,51.87
2018-10-18T08:30:38.550Z,45.20
2018-10-18T08:35:42.346Z,41.00
2018-10-18T08:40:46.183Z,41.23
2018-10-18T08:45:49.997Z,45.27
2018-10-18T08:50:53.915Z,43.70
2018-10-18T08:55:57.616Z,39.40
2018-10-18T09:01:01.294Z,38.83
2018-10-18T09:06:05.514Z,39.03
2018-10-18T09:11:09.253Z,41.67
2018-10-18T09:16:13.045Z,46.80
2018-10-18T09:21:16.686Z,45.87
2018-10-18T09:26:20.291Z,43.63
2018-10-18T09:31:23.910Z,44.80
2018-10-18T09:36:27.588Z,41.50
2018-10-18T09:41:31.347Z,40.83
2018-10-18T09:46:36.038Z,42.00
2018-10-18T09:51:40.658Z,41.33
2018-10-18T09:56:44.299Z,47.07
2018-10-18T10:01:52.129Z,43.47
2018-10-18T10:06:55.736Z,41.37
2018-10-18T10:11:59.526Z,47.57
2018-10-18T10:17:03.158Z,43.60
2018-10-18T10:22:06.890Z,41.57
2018-10-18T10:27:10.708Z,47.37
2018-10-18T10:32:14.350Z,43.40
2018-10-18T10:37:22.264Z,49.97
2018-10-18T10:42:26.069Z,39.60
2018-10-18T10:47:29.828Z,46.87
2018-10-18T10:52:33.575Z,45.67
2018-10-18T10:57:37.335Z,44.87
2018-10-18T11:02:41.026Z,44.30
2018-10-18T11:07:46.260Z,55.93
2018-10-18T11:12:49.882Z,54.87
2018-10-18T11:17:53.590Z,49.33
2018-10-18T11:22:57.385Z,51.30
2018-10-18T11:28:01.098Z,66.40
2018-10-18T11:33:04.868Z,64.93
2018-10-18T11:38:10.052Z,49.03
2018-10-18T11:43:13.880Z,57.73
2018-10-18T11:48:17.519Z,62.17
2018-10-18T11:53:21.233Z,55.60
2018-10-18T11:58:25.092Z,62.87
2018-10-18T12:03:29.358Z,67.23
2018-10-18T12:08:33.188Z,64.20
2018-10-18T12:13:36.933Z,66.93
2018-10-18T12:18:40.888Z,69.90
2018-10-18T12:23:44.672Z,68.03
2018-10-18T12:28:48.482Z,64.03
2018-10-18T12:33:52.503Z,51.07
2018-10-18T12:38:56.271Z,57.20
2018-10-18T12:44:00.138Z,51.70
2018-10-18T12:49:04.023Z,58.10
2018-10-18T12:54:08.807Z,57.57
2018-10-18T12:59:13.690Z,56.60
2018-10-18T13:04:17.539Z,64.77
2018-10-18T13:09:21.311Z,69.70
2018-10-18T13:14:25.827Z,64.73
2018-10-18T13:19:29.722Z,64.80
2018-10-18T13:24:33.609Z,64.47
2018-10-18T13:29:37.427Z,80.93
2018-10-18T13:34:42.063Z,77.90
2018-10-18T13:39:45.701Z,71.83
2018-10-18T13:44:49.456Z,68.57
2018-10-18T13:49:53.328Z,71.63
2018-10-18T13:54:57.081Z,62.93
2018-10-18T14:00:29.007Z,55.10
2018-10-18T14:05:33.774Z,63.43
2018-10-18T14:10:37.758Z,61.93
2018-10-18T14:15:41.603Z,51.50
2018-10-18T14:20:46.486Z,47.47
2018-10-18T14:25:50.185Z,57.43
2018-10-18T14:30:53.970Z,48.70
2018-10-18T14:35:57.764Z,45.47
2018-10-18T14:41:01.515Z,42.70
2018-10-18T14:46:05.434Z,42.10
2018-10-18T14:51:12.450Z,43.23
2018-10-18T14:56:16.187Z,42.63
2018-10-18T15:01:19.926Z,40.63
2018-10-18T15:06:23.715Z,41.90
2018-10-18T15:11:27.558Z,35.53
2018-10-18T15:16:33.412Z,33.70
2018-10-18T15:21:37.005Z,27.93
2018-10-18T15:26:40.692Z,24.47
2018-10-18T15:31:45.218Z,27.73
2018-10-18T15:36:49.919Z,27.27
2018-10-18T15:41:58.422Z,22.77
2018-10-18T15:47:03.219Z,21.43
2018-10-18T15:52:06.826Z,25.40
2018-10-18T15:57:10.672Z,25.40
2018-10-18T16:02:14.271Z,27.37
2018-10-18T16:07:18.178Z,28.13
2018-10-18T16:12:21.902Z,24.93
2018-10-18T16:17:25.516Z,22.87
2018-10-18T16:22:30.373Z,26.00
2018-10-18T16:27:34.206Z,26.57
2018-10-18T16:32:38.144Z,24.37
2018-10-18T16:37:41.846Z,24.50
2018-10-18T16:42:45.420Z,23.10
2018-10-18T16:47:51.287Z,25.50
2018-10-18T16:52:54.974Z,26.60
2018-10-18T16:58:07.154Z,24.17
2018-10-18T17:03:11.796Z,19.63
2018-10-18T17:08:17.556Z,22.60
2018-10-18T17:13:21.242Z,20.07
2018-10-18T17:18:24.949Z,23.03
2018-10-18T17:23:28.490Z,18.87
2018-10-18T17:28:32.174Z,21.07
2018-10-18T17:33:35.886Z,19.00
2018-10-18T17:38:40.194Z,21.43
2018-10-18T17:43:43.858Z,15.53
2018-10-18T17:48:47.616Z,15.63
2018-10-18T17:53:52.488Z,16.63
2018-10-18T17:58:56.359Z,17.47
2018-10-18T18:04:00.170Z,16.47
2018-10-18T18:09:05.008Z,18.33
2018-10-18T18:14:08.697Z,15.53
2018-10-18T18:19:14.441Z,15.53
2018-10-18T18:24:18.166Z,15.40
2018-10-18T18:29:21.757Z,27.10
2018-10-18T18:34:25.514Z,16.87
2018-10-18T18:39:34.436Z,16.47
2018-10-18T18:44:38.452Z,16.77
2018-10-18T18:49:42.546Z,17.07
2018-10-18T18:54:46.194Z,18.90
2018-10-18T18:59:49.994Z,17.70
2018-10-18T19:04:54.927Z,14.47
2018-10-18T19:10:01.245Z,14.90
2018-10-18T19:15:07.615Z,22.03
2018-10-18T19:20:11.282Z,16.63
2018-10-18T19:25:15.351Z,19.07
2018-10-18T19:30:19.034Z,15.93
2018-10-18T19:35:22.807Z,21.23
2018-10-18T19:40:27.587Z,17.73
2018-10-18T19:45:31.276Z,15.13
2018-10-18T19:50:35.271Z,14.67
2018-10-18T19:55:44.145Z,16.23
2018-10-18T20:00:48.510Z,16.07
2018-10-18T20:05:53.407Z,42.60
2018-10-18T20:11:02.201Z,34.90
2018-10-18T20:16:06.379Z,32.60
2018-10-18T20:21:10.872Z,25.07
2018-10-18T20:26:15.837Z,18.63
2018-10-18T20:31:19.247Z,19.07
2018-10-18T20:36:22.886Z,14.97
2018-10-18T20:41:27.178Z,15.20
2018-10-18T20:46:30.863Z,16.00
2018-10-18T20:51:35.685Z,16.10
2018-10-18T20:56:39.430Z,11.67
2018-10-18T21:01:43.310Z,10.60
2018-10-18T21:06:46.902Z,10.40
2018-10-18T21:11:50.526Z,9.73
2018-10-18T21:16:54.452Z,9.67
2018-10-18T21:21:58.762Z,13.30
2018-10-18T21:27:02.380Z,11.00
2018-10-18T21:32:07.957Z,9.23
2018-10-18T21:37:11.480Z,8.43
2018-10-18T21:42:15.043Z,7.73
2018-10-18T21:47:18.878Z,8.30
2018-10-18T21:52:22.475Z,8.23
2018-10-18T21:57:26.121Z,7.13
2018-10-18T22:02:29.710Z,5.80
2018-10-18T22:07:33.283Z,6.33
2018-10-18T22:12:37.303Z,6.37
2018-10-18T22:17:40.930Z,5.57
2018-10-18T22:22:44.477Z,5.63
2018-10-18T22:27:49.072Z,6.40
2018-10-18T22:32:52.925Z,5.23
2018-10-18T22:37:57.587Z,8.60
2018-10-18T22:43:01.344Z,4.87
2018-10-18T22:48:05.178Z,8.30
2018-10-18T22:53:08.970Z,6.80
2018-10-18T22:58:12.463Z,8.83
2018-10-18T23:03:16.947Z,6.03
2018-10-18T23:08:20.550Z,7.30
2018-10-18T23:13:24.094Z,10.47
2018-10-18T23:18:27.625Z,7.23
2018-10-18T23:23:31.338Z,6.03
2018-10-18T23:28:34.870Z,6.40
2018-10-18T23:33:38.414Z,7.27
2018-10-18T23:38:42.127Z,5.47
2018-10-18T23:43:45.889Z,6.20
2018-10-18T23:48:49.422Z,6.03
2018-10-18T23:53:53.155Z,7.60
2018-10-18T23:58:56.824Z,7.40
